sensor_id;sensor_type;location;lat;lon;timestamp;P1;durP1;ratioP1;P2;durP2;ratioP2
29774;SDS011;16676;51.202;6.774;2023-05-23T00:00:26;5.53;;;4.35;;
29774;SDS011;16676;51.202;6.774;2023-05-23T00:04:28;6.00;;;4.47;;
29774;SDS011;16676;51.202;6.774;2023-05-23T00:08:30;5.13;;;4.63;;
29774;SDS011;16676;51.202;6.774;2023-05-23T00:12:33;4.95;;;4.35;;
29774;SDS011;16676;51.202;6.774;2023-05-23T00:16:36;5.30;;;4.43;;
29774;SDS011;16676;51.202;6.774;2023-05-23T00:20:40;6.32;;;4.60;;
29774;SDS011;16676;51.202;6.774;2023-05-23T00:24:43;7.47;;;4.75;;
29774;SDS011;16676;51.202;6.774;2023-05-23T00:28:46;5.55;;;4.10;;
29774;SDS011;16676;51.202;6.774;2023-05-23T00:32:48;5.03;;;4.22;;
29774;SDS011;16676;51.202;6.774;2023-05-23T00:36:51;7.55;;;5.30;;
29774;SDS011;16676;51.202;6.774;2023-05-23T00:40:53;7.28;;;4.68;;
29774;SDS011;16676;51.202;6.774;2023-05-23T00:44:57;4.43;;;4.03;;
29774;SDS011;16676;51.202;6.774;2023-05-23T00:48:58;6.00;;;4.32;;
29774;SDS011;16676;51.202;6.774;2023-05-23T00:53:00;7.05;;;4.70;;
29774;SDS011;16676;51.202;6.774;2023-05-23T00:57:03;5.50;;;4.60;;
29774;SDS011;16676;51.202;6.774;2023-05-23T01:01:07;5.50;;;4.47;;
29774;SDS011;16676;51.202;6.774;2023-05-23T01:05:09;5.03;;;4.20;;
29774;SDS011;16676;51.202;6.774;2023-05-23T01:09:13;4.63;;;3.70;;
29774;SDS011;16676;51.202;6.774;2023-05-23T01:13:19;4.20;;;3.70;;
29774;SDS011;16676;51.202;6.774;2023-05-23T01:17:28;5.70;;;3.88;;
29774;SDS011;16676;51.202;6.774;2023-05-23T01:21:36;4.85;;;3.78;;
29774;SDS011;16676;51.202;6.774;2023-05-23T01:25:43;4.22;;;3.53;;
29774;SDS011;16676;51.202;6.774;2023-05-23T01:29:59;4.72;;;3.65;;
29774;SDS011;16676;51.202;6.774;2023-05-23T01:34:04;3.92;;;3.00;;
29774;SDS011;16676;51.202;6.774;2023-05-23T01:38:08;4.13;;;3.50;;
29774;SDS011;16676;51.202;6.774;2023-05-23T01:42:10;4.30;;;3.10;;
29774;SDS011;16676;51.202;6.774;2023-05-23T01:46:13;4.05;;;3.30;;
29774;SDS011;16676;51.202;6.774;2023-05-23T01:50:16;5.00;;;3.17;;
29774;SDS011;16676;51.202;6.774;2023-05-23T01:54:18;4.57;;;2.83;;
29774;SDS011;16676;51.202;6.774;2023-05-23T01:58:20;3.85;;;3.05;;
29774;SDS011;16676;51.202;6.774;2023-05-23T02:02:24;3.47;;;2.80;;
29774;SDS011;16676;51.202;6.774;2023-05-23T02:06:26;4.07;;;2.88;;
29774;SDS011;16676;51.202;6.774;2023-05-23T02:10:28;3.42;;;3.08;;
29774;SDS011;16676;51.202;6.774;2023-05-23T02:14:30;3.30;;;2.70;;
29774;SDS011;16676;51.202;6.774;2023-05-23T02:18:33;3.42;;;2.55;;
29774;SDS011;16676;51.202;6.774;2023-05-23T02:22:37;4.28;;;2.85;;
29774;SDS011;16676;51.202;6.774;2023-05-23T02:26:39;3.15;;;2.53;;
29774;SDS011;16676;51.202;6.774;2023-05-23T02:30:41;4.70;;;3.45;;
29774;SDS011;16676;51.202;6.774;2023-05-23T02:34:44;3.35;;;2.30;;
29774;SDS011;16676;51.202;6.774;2023-05-23T02:38:49;3.55;;;2.50;;
29774;SDS011;16676;51.202;6.774;2023-05-23T02:42:51;3.75;;;2.78;;
29774;SDS011;16676;51.202;6.774;2023-05-23T02:46:56;5.60;;;3.08;;
29774;SDS011;16676;51.202;6.774;2023-05-23T02:50:59;3.20;;;2.53;;
29774;SDS011;16676;51.202;6.774;2023-05-23T02:55:01;5.47;;;2.80;;
29774;SDS011;16676;51.202;6.774;2023-05-23T02:59:03;7.07;;;2.90;;
29774;SDS011;16676;51.202;6.774;2023-05-23T03:03:05;3.45;;;2.83;;
29774;SDS011;16676;51.202;6.774;2023-05-23T03:07:08;3.85;;;2.78;;
29774;SDS011;16676;51.202;6.774;2023-05-23T03:11:13;4.22;;;2.95;;
29774;SDS011;16676;51.202;6.774;2023-05-23T03:15:15;4.57;;;3.10;;
29774;SDS011;16676;51.202;6.774;2023-05-23T03:19:17;4.97;;;2.63;;
29774;SDS011;16676;51.202;6.774;2023-05-23T03:23:20;4.25;;;2.90;;
29774;SDS011;16676;51.202;6.774;2023-05-23T03:27:22;6.53;;;3.50;;
29774;SDS011;16676;51.202;6.774;2023-05-23T03:31:24;6.95;;;3.08;;
29774;SDS011;16676;51.202;6.774;2023-05-23T03:35:26;5.10;;;3.38;;
29774;SDS011;16676;51.202;6.774;2023-05-23T03:39:29;4.53;;;3.15;;
29774;SDS011;16676;51.202;6.774;2023-05-23T03:43:31;4.57;;;2.83;;
29774;SDS011;16676;51.202;6.774;2023-05-23T03:47:33;5.00;;;2.65;;
29774;SDS011;16676;51.202;6.774;2023-05-23T03:51:35;5.18;;;3.22;;
29774;SDS011;16676;51.202;6.774;2023-05-23T03:55:38;3.15;;;2.85;;
29774;SDS011;16676;51.202;6.774;2023-05-23T03:59:40;7.97;;;3.30;;
29774;SDS011;16676;51.202;6.774;2023-05-23T04:03:42;4.45;;;3.35;;
29774;SDS011;16676;51.202;6.774;2023-05-23T04:07:44;5.40;;;3.38;;
29774;SDS011;16676;51.202;6.774;2023-05-23T04:11:48;4.53;;;2.90;;
29774;SDS011;16676;51.202;6.774;2023-05-23T04:15:49;4.97;;;3.38;;
29774;SDS011;16676;51.202;6.774;2023-05-23T04:19:52;5.45;;;3.55;;
29774;SDS011;16676;51.202;6.774;2023-05-23T04:23:54;8.63;;;4.07;;
29774;SDS011;16676;51.202;6.774;2023-05-23T04:27:57;7.80;;;4.82;;
29774;SDS011;16676;51.202;6.774;2023-05-23T04:32:00;6.35;;;4.13;;
29774;SDS011;16676;51.202;6.774;2023-05-23T04:36:02;10.65;;;4.97;;
29774;SDS011;16676;51.202;6.774;2023-05-23T04:40:04;5.82;;;3.70;;
29774;SDS011;16676;51.202;6.774;2023-05-23T04:44:08;8.27;;;4.28;;
29774;SDS011;16676;51.202;6.774;2023-05-23T04:48:10;7.72;;;4.50;;
29774;SDS011;16676;51.202;6.774;2023-05-23T04:52:16;7.97;;;4.18;;
29774;SDS011;16676;51.202;6.774;2023-05-23T04:56:19;6.43;;;4.30;;
29774;SDS011;16676;51.202;6.774;2023-05-23T05:00:22;9.82;;;4.25;;
29774;SDS011;16676;51.202;6.774;2023-05-23T05:04:24;6.90;;;4.30;;
29774;SDS011;16676;51.202;6.774;2023-05-23T05:08:26;8.25;;;4.78;;
29774;SDS011;16676;51.202;6.774;2023-05-23T05:12:28;11.80;;;5.18;;
29774;SDS011;16676;51.202;6.774;2023-05-23T05:16:31;9.55;;;5.18;;
29774;SDS011;16676;51.202;6.774;2023-05-23T05:20:33;11.23;;;5.05;;
29774;SDS011;16676;51.202;6.774;2023-05-23T05:24:35;9.23;;;4.88;;
29774;SDS011;16676;51.202;6.774;2023-05-23T05:28:37;10.38;;;6.05;;
29774;SDS011;16676;51.202;6.774;2023-05-23T05:32:41;9.13;;;5.00;;
29774;SDS011;16676;51.202;6.774;2023-05-23T05:36:45;8.65;;;5.00;;
29774;SDS011;16676;51.202;6.774;2023-05-23T05:40:47;9.70;;;5.07;;
29774;SDS011;16676;51.202;6.774;2023-05-23T05:44:49;12.18;;;5.65;;
29774;SDS011;16676;51.202;6.774;2023-05-23T05:48:52;10.43;;;5.00;;
29774;SDS011;16676;51.202;6.774;2023-05-23T05:52:54;9.80;;;5.22;;
29774;SDS011;16676;51.202;6.774;2023-05-23T05:56:56;10.38;;;5.13;;
29774;SDS011;16676;51.202;6.774;2023-05-23T06:00:58;8.88;;;4.63;;
29774;SDS011;16676;51.202;6.774;2023-05-23T06:05:01;10.60;;;4.57;;
29774;SDS011;16676;51.202;6.774;2023-05-23T06:09:04;10.45;;;4.72;;
29774;SDS011;16676;51.202;6.774;2023-05-23T06:13:05;8.70;;;4.28;;
29774;SDS011;16676;51.202;6.774;2023-05-23T06:17:07;7.82;;;4.60;;
29774;SDS011;16676;51.202;6.774;2023-05-23T06:21:11;7.97;;;4.65;;
29774;SDS011;16676;51.202;6.774;2023-05-23T06:25:12;7.75;;;4.05;;
29774;SDS011;16676;51.202;6.774;2023-05-23T06:29:14;7.15;;;4.20;;
29774;SDS011;16676;51.202;6.774;2023-05-23T06:33:16;6.05;;;3.40;;
29774;SDS011;16676;51.202;6.774;2023-05-23T06:37:20;7.45;;;4.13;;
29774;SDS011;16676;51.202;6.774;2023-05-23T06:41:22;7.07;;;4.13;;
29774;SDS011;16676;51.202;6.774;2023-05-23T06:45:23;8.07;;;3.80;;
29774;SDS011;16676;51.202;6.774;2023-05-23T06:49:25;6.45;;;3.55;;
29774;SDS011;16676;51.202;6.774;2023-05-23T06:53:29;6.30;;;4.20;;
29774;SDS011;16676;51.202;6.774;2023-05-23T06:57:31;5.38;;;3.75;;
29774;SDS011;16676;51.202;6.774;2023-05-23T07:01:33;5.63;;;3.72;;
29774;SDS011;16676;51.202;6.774;2023-05-23T07:05:35;5.50;;;3.40;;
29774;SDS011;16676;51.202;6.774;2023-05-23T07:09:38;5.47;;;3.33;;
29774;SDS011;16676;51.202;6.774;2023-05-23T07:13:40;4.47;;;3.10;;
29774;SDS011;16676;51.202;6.774;2023-05-23T07:17:42;4.78;;;3.47;;
29774;SDS011;16676;51.202;6.774;2023-05-23T07:21:43;6.25;;;3.70;;
29774;SDS011;16676;51.202;6.774;2023-05-23T07:25:47;7.07;;;3.75;;
29774;SDS011;16676;51.202;6.774;2023-05-23T07:29:49;12.93;;;3.70;;
29774;SDS011;16676;51.202;6.774;2023-05-23T07:33:51;8.35;;;3.72;;
29774;SDS011;16676;51.202;6.774;2023-05-23T07:37:52;5.25;;;3.65;;
29774;SDS011;16676;51.202;6.774;2023-05-23T07:41:56;5.82;;;3.70;;
29774;SDS011;16676;51.202;6.774;2023-05-23T07:45:58;8.50;;;4.40;;
29774;SDS011;16676;51.202;6.774;2023-05-23T07:50:00;8.38;;;3.58;;
29774;SDS011;16676;51.202;6.774;2023-05-23T07:54:02;6.40;;;3.55;;
29774;SDS011;16676;51.202;6.774;2023-05-23T07:58:06;6.05;;;3.95;;
29774;SDS011;16676;51.202;6.774;2023-05-23T08:02:07;8.80;;;4.18;;
29774;SDS011;16676;51.202;6.774;2023-05-23T08:06:09;7.30;;;4.10;;
29774;SDS011;16676;51.202;6.774;2023-05-23T08:10:11;6.10;;;3.75;;
29774;SDS011;16676;51.202;6.774;2023-05-23T08:14:15;8.43;;;4.10;;
29774;SDS011;16676;51.202;6.774;2023-05-23T08:18:16;7.47;;;3.83;;
29774;SDS011;16676;51.202;6.774;2023-05-23T08:22:18;8.45;;;3.75;;
29774;SDS011;16676;51.202;6.774;2023-05-23T08:26:20;12.10;;;4.07;;
29774;SDS011;16676;51.202;6.774;2023-05-23T08:30:23;12.20;;;4.18;;
29774;SDS011;16676;51.202;6.774;2023-05-23T08:34:25;9.50;;;4.45;;
29774;SDS011;16676;51.202;6.774;2023-05-23T08:38:27;9.90;;;4.22;;
29774;SDS011;16676;51.202;6.774;2023-05-23T08:42:29;7.07;;;3.83;;
29774;SDS011;16676;51.202;6.774;2023-05-23T08:46:32;8.55;;;4.45;;
29774;SDS011;16676;51.202;6.774;2023-05-23T08:50:41;9.75;;;4.50;;
29774;SDS011;16676;51.202;6.774;2023-05-23T08:54:46;7.13;;;4.00;;
29774;SDS011;16676;51.202;6.774;2023-05-23T08:58:49;9.25;;;4.10;;
29774;SDS011;16676;51.202;6.774;2023-05-23T09:02:53;8.60;;;4.07;;
29774;SDS011;16676;51.202;6.774;2023-05-23T09:06:56;11.02;;;4.43;;
29774;SDS011;16676;51.202;6.774;2023-05-23T09:10:58;11.18;;;4.00;;
29774;SDS011;16676;51.202;6.774;2023-05-23T09:15:01;9.07;;;4.30;;
29774;SDS011;16676;51.202;6.774;2023-05-23T09:19:12;12.90;;;4.22;;
29774;SDS011;16676;51.202;6.774;2023-05-23T09:23:14;9.23;;;4.13;;
29774;SDS011;16676;51.202;6.774;2023-05-23T09:27:16;10.00;;;4.13;;
29774;SDS011;16676;51.202;6.774;2023-05-23T09:31:18;7.47;;;4.07;;
29774;SDS011;16676;51.202;6.774;2023-05-23T09:35:27;8.23;;;4.05;;
29774;SDS011;16676;51.202;6.774;2023-05-23T09:39:29;9.15;;;3.90;;
29774;SDS011;16676;51.202;6.774;2023-05-23T09:43:31;6.25;;;3.70;;
29774;SDS011;16676;51.202;6.774;2023-05-23T09:47:33;8.98;;;4.35;;
29774;SDS011;16676;51.202;6.774;2023-05-23T09:51:36;8.45;;;3.58;;
29774;SDS011;16676;51.202;6.774;2023-05-23T09:55:39;8.52;;;4.00;;
29774;SDS011;16676;51.202;6.774;2023-05-23T09:59:41;7.10;;;3.67;;
29774;SDS011;16676;51.202;6.774;2023-05-23T10:03:52;8.65;;;3.75;;
29774;SDS011;16676;51.202;6.774;2023-05-23T10:07:58;6.63;;;3.42;;
29774;SDS011;16676;51.202;6.774;2023-05-23T10:16:38;11.05;;;4.07;;
29774;SDS011;16676;51.202;6.774;2023-05-23T10:20:46;8.55;;;3.72;;
29774;SDS011;16676;51.202;6.774;2023-05-23T10:24:50;7.93;;;3.78;;
29774;SDS011;16676;51.202;6.774;2023-05-23T10:28:53;8.55;;;3.47;;
29774;SDS011;16676;51.202;6.774;2023-05-23T10:32:57;8.85;;;4.07;;
29774;SDS011;16676;51.202;6.774;2023-05-23T10:37:01;7.65;;;3.50;;
29774;SDS011;16676;51.202;6.774;2023-05-23T10:41:08;5.85;;;3.58;;
29774;SDS011;16676;51.202;6.774;2023-05-23T10:45:13;8.13;;;3.70;;
29774;SDS011;16676;51.202;6.774;2023-05-23T10:49:15;6.10;;;3.55;;
29774;SDS011;16676;51.202;6.774;2023-05-23T10:53:18;7.90;;;3.50;;
29774;SDS011;16676;51.202;6.774;2023-05-23T10:57:24;5.95;;;3.42;;
29774;SDS011;16676;51.202;6.774;2023-05-23T11:01:27;8.45;;;3.67;;
29774;SDS011;16676;51.202;6.774;2023-05-23T11:05:29;7.15;;;3.67;;
29774;SDS011;16676;51.202;6.774;2023-05-23T11:09:33;7.72;;;3.90;;
29774;SDS011;16676;51.202;6.774;2023-05-23T11:18:05;9.52;;;3.97;;
29774;SDS011;16676;51.202;6.774;2023-05-23T11:22:07;9.32;;;3.92;;
29774;SDS011;16676;51.202;6.774;2023-05-23T11:30:30;10.18;;;4.15;;
29774;SDS011;16676;51.202;6.774;2023-05-23T11:34:32;7.47;;;3.78;;
29774;SDS011;16676;51.202;6.774;2023-05-23T11:38:34;7.03;;;3.85;;
29774;SDS011;16676;51.202;6.774;2023-05-23T11:42:40;9.68;;;3.80;;
29774;SDS011;16676;51.202;6.774;2023-05-23T11:46:44;7.07;;;3.30;;
29774;SDS011;16676;51.202;6.774;2023-05-23T11:51:00;9.20;;;3.65;;
29774;SDS011;16676;51.202;6.774;2023-05-23T11:55:03;9.65;;;4.28;;
29774;SDS011;16676;51.202;6.774;2023-05-23T11:59:06;6.45;;;3.80;;
29774;SDS011;16676;51.202;6.774;2023-05-23T12:03:10;7.20;;;3.65;;
29774;SDS011;16676;51.202;6.774;2023-05-23T12:07:12;7.85;;;3.72;;
29774;SDS011;16676;51.202;6.774;2023-05-23T12:11:14;7.35;;;3.45;;
29774;SDS011;16676;51.202;6.774;2023-05-23T12:15:16;7.55;;;3.30;;
29774;SDS011;16676;51.202;6.774;2023-05-23T12:19:19;6.63;;;3.22;;
29774;SDS011;16676;51.202;6.774;2023-05-23T12:23:22;8.20;;;3.72;;
29774;SDS011;16676;51.202;6.774;2023-05-23T12:27:27;7.00;;;3.00;;
29774;SDS011;16676;51.202;6.774;2023-05-23T12:31:30;7.93;;;3.15;;
29774;SDS011;16676;51.202;6.774;2023-05-23T12:35:35;8.68;;;3.15;;
29774;SDS011;16676;51.202;6.774;2023-05-23T12:39:36;6.40;;;3.25;;
29774;SDS011;16676;51.202;6.774;2023-05-23T12:43:38;7.47;;;3.35;;
29774;SDS011;16676;51.202;6.774;2023-05-23T12:47:40;8.50;;;2.80;;
29774;SDS011;16676;51.202;6.774;2023-05-23T12:51:44;7.05;;;2.88;;
29774;SDS011;16676;51.202;6.774;2023-05-23T12:55:46;9.32;;;3.33;;
29774;SDS011;16676;51.202;6.774;2023-05-23T12:59:48;8.93;;;2.90;;
29774;SDS011;16676;51.202;6.774;2023-05-23T13:03:49;8.15;;;2.63;;
29774;SDS011;16676;51.202;6.774;2023-05-23T13:07:53;8.35;;;3.08;;
29774;SDS011;16676;51.202;6.774;2023-05-23T13:11:55;7.70;;;3.20;;
29774;SDS011;16676;51.202;6.774;2023-05-23T13:15:57;8.07;;;2.70;;
29774;SDS011;16676;51.202;6.774;2023-05-23T13:19:59;7.30;;;2.80;;
29774;SDS011;16676;51.202;6.774;2023-05-23T13:24:05;6.75;;;2.65;;
29774;SDS011;16676;51.202;6.774;2023-05-23T13:28:08;9.32;;;2.78;;
29774;SDS011;16676;51.202;6.774;2023-05-23T13:32:10;6.82;;;3.33;;
29774;SDS011;16676;51.202;6.774;2023-05-23T13:36:12;8.77;;;2.92;;
29774;SDS011;16676;51.202;6.774;2023-05-23T13:40:17;7.60;;;2.85;;
29774;SDS011;16676;51.202;6.774;2023-05-23T13:44:20;8.60;;;2.60;;
29774;SDS011;16676;51.202;6.774;2023-05-23T13:48:22;10.32;;;3.33;;
29774;SDS011;16676;51.202;6.774;2023-05-23T13:52:24;13.35;;;2.97;;
29774;SDS011;16676;51.202;6.774;2023-05-23T13:56:27;9.00;;;2.97;;
29774;SDS011;16676;51.202;6.774;2023-05-23T14:00:29;8.98;;;2.95;;
29774;SDS011;16676;51.202;6.774;2023-05-23T14:04:31;6.20;;;2.97;;
29774;SDS011;16676;51.202;6.774;2023-05-23T14:08:33;8.90;;;3.20;;
29774;SDS011;16676;51.202;6.774;2023-05-23T14:12:37;8.32;;;2.72;;
29774;SDS011;16676;51.202;6.774;2023-05-23T14:16:39;9.82;;;3.25;;
29774;SDS011;16676;51.202;6.774;2023-05-23T14:20:40;9.65;;;2.90;;
29774;SDS011;16676;51.202;6.774;2023-05-23T14:24:42;8.07;;;2.88;;
29774;SDS011;16676;51.202;6.774;2023-05-23T14:28:46;8.52;;;2.80;;
29774;SDS011;16676;51.202;6.774;2023-05-23T14:32:48;6.57;;;2.63;;
29774;SDS011;16676;51.202;6.774;2023-05-23T14:36:50;10.75;;;3.08;;
29774;SDS011;16676;51.202;6.774;2023-05-23T14:40:52;5.90;;;2.42;;
29774;SDS011;16676;51.202;6.774;2023-05-23T14:44:55;8.05;;;2.55;;
29774;SDS011;16676;51.202;6.774;2023-05-23T14:48:57;7.88;;;2.65;;
29774;SDS011;16676;51.202;6.774;2023-05-23T14:52:59;7.35;;;2.67;;
29774;SDS011;16676;51.202;6.774;2023-05-23T14:57:01;10.10;;;2.95;;
29774;SDS011;16676;51.202;6.774;2023-05-23T15:01:05;6.57;;;2.65;;
29774;SDS011;16676;51.202;6.774;2023-05-23T15:05:07;7.30;;;2.47;;
29774;SDS011;16676;51.202;6.774;2023-05-23T15:09:09;11.70;;;2.53;;
29774;SDS011;16676;51.202;6.774;2023-05-23T15:13:11;6.47;;;2.40;;
29774;SDS011;16676;51.202;6.774;2023-05-23T15:17:15;11.20;;;3.00;;
29774;SDS011;16676;51.202;6.774;2023-05-23T15:21:19;8.30;;;2.70;;
29774;SDS011;16676;51.202;6.774;2023-05-23T15:25:21;7.15;;;3.03;;
29774;SDS011;16676;51.202;6.774;2023-05-23T15:29:25;8.50;;;2.70;;
29774;SDS011;16676;51.202;6.774;2023-05-23T15:33:28;7.20;;;2.70;;
29774;SDS011;16676;51.202;6.774;2023-05-23T15:37:30;10.35;;;2.90;;
29774;SDS011;16676;51.202;6.774;2023-05-23T15:41:32;7.40;;;2.83;;
29774;SDS011;16676;51.202;6.774;2023-05-23T15:45:34;6.25;;;2.90;;
29774;SDS011;16676;51.202;6.774;2023-05-23T15:49:37;8.13;;;3.30;;
29774;SDS011;16676;51.202;6.774;2023-05-23T15:53:39;6.60;;;2.70;;
29774;SDS011;16676;51.202;6.774;2023-05-23T15:57:42;6.20;;;2.38;;
29774;SDS011;16676;51.202;6.774;2023-05-23T16:01:44;7.30;;;3.15;;
29774;SDS011;16676;51.202;6.774;2023-05-23T16:05:47;10.05;;;3.20;;
29774;SDS011;16676;51.202;6.774;2023-05-23T16:09:49;6.25;;;2.38;;
29774;SDS011;16676;51.202;6.774;2023-05-23T16:13:51;6.85;;;2.85;;
29774;SDS011;16676;51.202;6.774;2023-05-23T16:17:53;5.50;;;2.55;;
29774;SDS011;16676;51.202;6.774;2023-05-23T16:21:56;5.35;;;2.47;;
29774;SDS011;16676;51.202;6.774;2023-05-23T16:25:58;7.28;;;2.75;;
29774;SDS011;16676;51.202;6.774;2023-05-23T16:30:01;9.50;;;2.83;;
29774;SDS011;16676;51.202;6.774;2023-05-23T16:34:03;8.75;;;2.72;;
29774;SDS011;16676;51.202;6.774;2023-05-23T16:38:06;7.50;;;2.40;;
29774;SDS011;16676;51.202;6.774;2023-05-23T16:42:08;6.47;;;2.33;;
29774;SDS011;16676;51.202;6.774;2023-05-23T16:46:10;10.90;;;2.78;;
29774;SDS011;16676;51.202;6.774;2023-05-23T16:50:12;8.73;;;2.50;;
29774;SDS011;16676;51.202;6.774;2023-05-23T16:54:15;9.40;;;2.97;;
29774;SDS011;16676;51.202;6.774;2023-05-23T16:58:17;6.75;;;2.58;;
29774;SDS011;16676;51.202;6.774;2023-05-23T17:02:19;7.10;;;2.67;;
29774;SDS011;16676;51.202;6.774;2023-05-23T17:06:21;7.63;;;2.97;;
29774;SDS011;16676;51.202;6.774;2023-05-23T17:10:24;6.55;;;2.67;;
29774;SDS011;16676;51.202;6.774;2023-05-23T17:14:26;8.70;;;2.85;;
29774;SDS011;16676;51.202;6.774;2023-05-23T17:18:28;8.70;;;2.78;;
29774;SDS011;16676;51.202;6.774;2023-05-23T17:22:31;7.43;;;2.53;;
29774;SDS011;16676;51.202;6.774;2023-05-23T17:26:34;6.07;;;2.35;;
29774;SDS011;16676;51.202;6.774;2023-05-23T17:30:36;7.07;;;2.50;;
29774;SDS011;16676;51.202;6.774;2023-05-23T17:34:38;9.50;;;2.55;;
29774;SDS011;16676;51.202;6.774;2023-05-23T17:38:40;9.43;;;2.85;;
29774;SDS011;16676;51.202;6.774;2023-05-23T17:42:43;8.70;;;2.80;;
29774;SDS011;16676;51.202;6.774;2023-05-23T17:46:45;8.75;;;2.72;;
29774;SDS011;16676;51.202;6.774;2023-05-23T17:50:47;14.65;;;4.88;;
29774;SDS011;16676;51.202;6.774;2023-05-23T17:54:49;31.05;;;8.48;;
29774;SDS011;16676;51.202;6.774;2023-05-23T17:58:52;28.52;;;8.82;;
29774;SDS011;16676;51.202;6.774;2023-05-23T18:02:54;37.55;;;10.88;;
29774;SDS011;16676;51.202;6.774;2023-05-23T18:06:56;45.40;;;12.63;;
29774;SDS011;16676;51.202;6.774;2023-05-23T18:10:58;43.45;;;12.93;;
29774;SDS011;16676;51.202;6.774;2023-05-23T18:15:01;40.15;;;12.07;;
29774;SDS011;16676;51.202;6.774;2023-05-23T18:19:03;42.67;;;12.20;;
29774;SDS011;16676;51.202;6.774;2023-05-23T18:23:05;34.13;;;10.73;;
29774;SDS011;16676;51.202;6.774;2023-05-23T18:27:07;40.05;;;11.90;;
29774;SDS011;16676;51.202;6.774;2023-05-23T18:31:10;36.33;;;10.27;;
29774;SDS011;16676;51.202;6.774;2023-05-23T18:35:12;32.97;;;9.63;;
29774;SDS011;16676;51.202;6.774;2023-05-23T18:39:14;30.80;;;9.70;;
29774;SDS011;16676;51.202;6.774;2023-05-23T18:43:17;30.27;;;9.27;;
29774;SDS011;16676;51.202;6.774;2023-05-23T18:47:21;30.02;;;8.73;;
29774;SDS011;16676;51.202;6.774;2023-05-23T18:51:23;31.08;;;8.18;;
29774;SDS011;16676;51.202;6.774;2023-05-23T18:55:26;25.58;;;7.80;;
29774;SDS011;16676;51.202;6.774;2023-05-23T18:59:28;26.77;;;8.05;;
29774;SDS011;16676;51.202;6.774;2023-05-23T19:03:31;22.60;;;7.10;;
29774;SDS011;16676;51.202;6.774;2023-05-23T19:07:34;23.85;;;7.20;;
29774;SDS011;16676;51.202;6.774;2023-05-23T19:11:36;21.27;;;6.72;;
29774;SDS011;16676;51.202;6.774;2023-05-23T19:15:38;18.05;;;6.85;;
29774;SDS011;16676;51.202;6.774;2023-05-23T19:19:41;20.17;;;6.50;;
29774;SDS011;16676;51.202;6.774;2023-05-23T19:23:43;17.30;;;6.25;;
29774;SDS011;16676;51.202;6.774;2023-05-23T19:27:45;20.98;;;5.88;;
29774;SDS011;16676;51.202;6.774;2023-05-23T19:31:47;18.10;;;6.35;;
29774;SDS011;16676;51.202;6.774;2023-05-23T19:35:50;17.25;;;6.07;;
29774;SDS011;16676;51.202;6.774;2023-05-23T19:39:52;17.52;;;6.03;;
29774;SDS011;16676;51.202;6.774;2023-05-23T19:43:54;20.63;;;5.78;;
29774;SDS011;16676;51.202;6.774;2023-05-23T19:47:56;15.15;;;5.68;;
29774;SDS011;16676;51.202;6.774;2023-05-23T19:51:59;16.95;;;5.40;;
29774;SDS011;16676;51.202;6.774;2023-05-23T19:56:01;14.60;;;4.85;;
29774;SDS011;16676;51.202;6.774;2023-05-23T20:00:04;13.52;;;4.55;;
29774;SDS011;16676;51.202;6.774;2023-05-23T20:04:08;14.20;;;4.55;;
29774;SDS011;16676;51.202;6.774;2023-05-23T20:08:13;14.80;;;3.70;;
29774;SDS011;16676;51.202;6.774;2023-05-23T20:12:16;14.90;;;3.30;;
29774;SDS011;16676;51.202;6.774;2023-05-23T20:16:18;11.90;;;3.35;;
29774;SDS011;16676;51.202;6.774;2023-05-23T20:20:20;8.85;;;3.28;;
29774;SDS011;16676;51.202;6.774;2023-05-23T20:24:23;10.88;;;3.10;;
29774;SDS011;16676;51.202;6.774;2023-05-23T20:28:25;13.00;;;3.28;;
29774;SDS011;16676;51.202;6.774;2023-05-23T20:32:27;13.77;;;3.22;;
29774;SDS011;16676;51.202;6.774;2023-05-23T20:36:29;8.23;;;2.80;;
29774;SDS011;16676;51.202;6.774;2023-05-23T20:40:33;8.05;;;2.75;;
29774;SDS011;16676;51.202;6.774;2023-05-23T20:44:35;12.25;;;2.90;;
29774;SDS011;16676;51.202;6.774;2023-05-23T20:48:38;9.88;;;3.10;;
29774;SDS011;16676;51.202;6.774;2023-05-23T20:52:40;11.52;;;3.35;;
29774;SDS011;16676;51.202;6.774;2023-05-23T20:56:43;9.50;;;2.90;;
29774;SDS011;16676;51.202;6.774;2023-05-23T21:00:46;9.93;;;3.28;;
29774;SDS011;16676;51.202;6.774;2023-05-23T21:04:48;9.65;;;2.58;;
29774;SDS011;16676;51.202;6.774;2023-05-23T21:08:50;12.25;;;2.80;;
29774;SDS011;16676;51.202;6.774;2023-05-23T21:12:53;10.45;;;2.67;;
29774;SDS011;16676;51.202;6.774;2023-05-23T21:16:55;9.45;;;2.88;;
29774;SDS011;16676;51.202;6.774;2023-05-23T21:20:57;9.50;;;2.53;;
29774;SDS011;16676;51.202;6.774;2023-05-23T21:24:59;9.07;;;2.22;;
29774;SDS011;16676;51.202;6.774;2023-05-23T21:29:02;10.48;;;2.70;;
29774;SDS011;16676;51.202;6.774;2023-05-23T21:33:04;8.13;;;2.63;;
29774;SDS011;16676;51.202;6.774;2023-05-23T21:37:06;6.68;;;2.60;;
29774;SDS011;16676;51.202;6.774;2023-05-23T21:41:08;9.82;;;2.50;;
29774;SDS011;16676;51.202;6.774;2023-05-23T21:45:11;7.40;;;2.15;;
29774;SDS011;16676;51.202;6.774;2023-05-23T21:49:13;11.00;;;2.30;;
29774;SDS011;16676;51.202;6.774;2023-05-23T21:53:15;9.13;;;2.60;;
29774;SDS011;16676;51.202;6.774;2023-05-23T21:57:17;8.68;;;2.10;;
29774;SDS011;16676;51.202;6.774;2023-05-23T22:01:20;8.63;;;2.40;;
29774;SDS011;16676;51.202;6.774;2023-05-23T22:05:22;7.55;;;2.00;;
29774;SDS011;16676;51.202;6.774;2023-05-23T22:09:24;9.18;;;2.50;;
29774;SDS011;16676;51.202;6.774;2023-05-23T22:13:26;10.32;;;2.40;;
29774;SDS011;16676;51.202;6.774;2023-05-23T22:17:29;8.48;;;2.00;;
29774;SDS011;16676;51.202;6.774;2023-05-23T22:21:33;8.00;;;1.85;;
29774;SDS011;16676;51.202;6.774;2023-05-23T22:25:35;7.95;;;2.30;;
29774;SDS011;16676;51.202;6.774;2023-05-23T22:29:37;8.07;;;2.30;;
29774;SDS011;16676;51.202;6.774;2023-05-23T22:33:41;6.88;;;2.10;;
29774;SDS011;16676;51.202;6.774;2023-05-23T22:37:44;7.43;;;2.20;;
29774;SDS011;16676;51.202;6.774;2023-05-23T22:41:46;7.72;;;2.38;;
29774;SDS011;16676;51.202;6.774;2023-05-23T22:45:48;7.22;;;1.95;;
29774;SDS011;16676;51.202;6.774;2023-05-23T22:49:52;7.82;;;2.17;;
29774;SDS011;16676;51.202;6.774;2023-05-23T22:53:55;8.10;;;2.00;;
29774;SDS011;16676;51.202;6.774;2023-05-23T22:57:57;7.22;;;2.00;;
29774;SDS011;16676;51.202;6.774;2023-05-23T23:01:59;5.38;;;1.77;;
29774;SDS011;16676;51.202;6.774;2023-05-23T23:06:02;8.10;;;2.15;;
29774;SDS011;16676;51.202;6.774;2023-05-23T23:10:07;6.60;;;2.30;;
29774;SDS011;16676;51.202;6.774;2023-05-23T23:14:10;8.30;;;2.42;;
29774;SDS011;16676;51.202;6.774;2023-05-23T23:18:11;7.72;;;1.90;;
29774;SDS011;16676;51.202;6.774;2023-05-23T23:22:15;7.50;;;1.67;;
29774;SDS011;16676;51.202;6.774;2023-05-23T23:26:17;7.10;;;1.73;;
29774;SDS011;16676;51.202;6.774;2023-05-23T23:30:19;6.47;;;2.13;;
29774;SDS011;16676;51.202;6.774;2023-05-23T23:34:21;8.90;;;2.28;;
29774;SDS011;16676;51.202;6.774;2023-05-23T23:38:24;7.03;;;1.77;;
29774;SDS011;16676;51.202;6.774;2023-05-23T23:42:26;8.90;;;2.10;;
29774;SDS011;16676;51.202;6.774;2023-05-23T23:46:29;6.85;;;1.70;;
29774;SDS011;16676;51.202;6.774;2023-05-23T23:50:31;8.88;;;2.33;;
29774;SDS011;16676;51.202;6.774;2023-05-23T23:54:34;8.02;;;2.28;;
29774;SDS011;16676;51.202;6.774;2023-05-23T23:58:37;7.05;;;1.88;;
